sensor_id;sensor_type;location;lat;lon;timestamp;temperature;humidity
24678;DHT22;12800;53.094;8.778;2022-11-15T00:01:25;9.90;83.60
24678;DHT22;12800;53.094;8.778;2022-11-15T00:03:51;9.90;83.60
24678;DHT22;12800;53.094;8.778;2022-11-15T00:06:17;9.90;83.60
24678;DHT22;12800;53.094;8.778;2022-11-15T00:08:42;9.90;83.70
24678;DHT22;12800;53.094;8.778;2022-11-15T00:11:10;9.90;83.70
24678;DHT22;12800;53.094;8.778;2022-11-15T00:13:36;9.90;83.70
24678;DHT22;12800;53.094;8.778;2022-11-15T00:16:02;9.90;83.70
24678;DHT22;12800;53.094;8.778;2022-11-15T00:18:28;9.80;83.70
24678;DHT22;12800;53.094;8.778;2022-11-15T00:20:56;9.80;83.70
24678;DHT22;12800;53.094;8.778;2022-11-15T00:23:21;9.80;83.70
24678;DHT22;12800;53.094;8.778;2022-11-15T00:25:47;9.80;83.70
24678;DHT22;12800;53.094;8.778;2022-11-15T00:28:20;9.80;83.70
24678;DHT22;12800;53.094;8.778;2022-11-15T00:30:45;9.80;83.70
24678;DHT22;12800;53.094;8.778;2022-11-15T00:33:11;9.90;83.80
24678;DHT22;12800;53.094;8.778;2022-11-15T00:35:36;9.80;83.80
24678;DHT22;12800;53.094;8.778;2022-11-15T00:38:02;9.80;83.70
24678;DHT22;12800;53.094;8.778;2022-11-15T00:40:28;9.80;83.80
24678;DHT22;12800;53.094;8.778;2022-11-15T00:42:54;9.80;83.80
24678;DHT22;12800;53.094;8.778;2022-11-15T00:45:20;9.80;83.80
24678;DHT22;12800;53.094;8.778;2022-11-15T00:47:46;9.80;83.90
24678;DHT22;12800;53.094;8.778;2022-11-15T00:50:12;9.80;83.80
24678;DHT22;12800;53.094;8.778;2022-11-15T00:52:37;9.80;83.90
24678;DHT22;12800;53.094;8.778;2022-11-15T00:55:03;9.80;83.90
24678;DHT22;12800;53.094;8.778;2022-11-15T00:57:29;9.80;83.90
24678;DHT22;12800;53.094;8.778;2022-11-15T00:59:55;9.80;83.90
24678;DHT22;12800;53.094;8.778;2022-11-15T01:02:21;9.80;83.90
24678;DHT22;12800;53.094;8.778;2022-11-15T01:04:46;9.80;84.00
24678;DHT22;12800;53.094;8.778;2022-11-15T01:07:12;9.80;84.00
24678;DHT22;12800;53.094;8.778;2022-11-15T01:09:37;9.70;83.90
24678;DHT22;12800;53.094;8.778;2022-11-15T01:12:03;9.80;84.00
24678;DHT22;12800;53.094;8.778;2022-11-15T01:14:29;9.70;83.90
24678;DHT22;12800;53.094;8.778;2022-11-15T01:16:55;9.70;83.80
24678;DHT22;12800;53.094;8.778;2022-11-15T01:19:20;9.70;83.90
24678;DHT22;12800;53.094;8.778;2022-11-15T01:21:49;9.70;83.90
24678;DHT22;12800;53.094;8.778;2022-11-15T01:24:15;9.70;84.00
24678;DHT22;12800;53.094;8.778;2022-11-15T01:26:40;9.60;84.10
24678;DHT22;12800;53.094;8.778;2022-11-15T01:29:06;9.60;84.00
24678;DHT22;12800;53.094;8.778;2022-11-15T01:31:32;9.70;84.10
24678;DHT22;12800;53.094;8.778;2022-11-15T01:33:57;9.70;84.10
24678;DHT22;12800;53.094;8.778;2022-11-15T01:36:23;9.70;84.00
24678;DHT22;12800;53.094;8.778;2022-11-15T01:38:56;9.70;84.00
24678;DHT22;12800;53.094;8.778;2022-11-15T01:41:24;9.70;83.90
24678;DHT22;12800;53.094;8.778;2022-11-15T01:43:53;9.60;83.90
24678;DHT22;12800;53.094;8.778;2022-11-15T01:48:50;9.60;83.80
24678;DHT22;12800;53.094;8.778;2022-11-15T01:51:18;9.60;83.90
24678;DHT22;12800;53.094;8.778;2022-11-15T01:53:47;9.60;83.90
24678;DHT22;12800;53.094;8.778;2022-11-15T01:56:18;9.50;83.80
24678;DHT22;12800;53.094;8.778;2022-11-15T01:58:45;9.50;83.80
24678;DHT22;12800;53.094;8.778;2022-11-15T02:01:12;9.50;83.80
24678;DHT22;12800;53.094;8.778;2022-11-15T02:03:48;9.40;83.90
24678;DHT22;12800;53.094;8.778;2022-11-15T02:06:15;9.40;83.90
24678;DHT22;12800;53.094;8.778;2022-11-15T02:08:42;9.40;84.10
24678;DHT22;12800;53.094;8.778;2022-11-15T02:11:08;9.40;84.10
24678;DHT22;12800;53.094;8.778;2022-11-15T02:13:35;9.40;84.40
24678;DHT22;12800;53.094;8.778;2022-11-15T02:18:44;9.50;84.50
24678;DHT22;12800;53.094;8.778;2022-11-15T02:21:42;9.50;84.50
24678;DHT22;12800;53.094;8.778;2022-11-15T02:27:39;9.60;84.50
24678;DHT22;12800;53.094;8.778;2022-11-15T02:36:01;9.80;84.40
24678;DHT22;12800;53.094;8.778;2022-11-15T02:38:47;9.80;84.40
24678;DHT22;12800;53.094;8.778;2022-11-15T02:42:06;9.90;84.30
24678;DHT22;12800;53.094;8.778;2022-11-15T02:44:23;9.80;84.10
24678;DHT22;12800;53.094;8.778;2022-11-15T02:49:49;9.90;84.20
24678;DHT22;12800;53.094;8.778;2022-11-15T02:52:20;9.90;84.10
24678;DHT22;12800;53.094;8.778;2022-11-15T02:54:57;10.00;84.10
24678;DHT22;12800;53.094;8.778;2022-11-15T02:57:52;10.00;84.20
24678;DHT22;12800;53.094;8.778;2022-11-15T03:00:22;10.00;84.00
24678;DHT22;12800;53.094;8.778;2022-11-15T03:02:53;10.00;84.10
24678;DHT22;12800;53.094;8.778;2022-11-15T03:05:42;10.10;84.10
24678;DHT22;12800;53.094;8.778;2022-11-15T03:08:17;10.10;84.20
24678;DHT22;12800;53.094;8.778;2022-11-15T03:11:03;10.20;84.30
24678;DHT22;12800;53.094;8.778;2022-11-15T03:18:59;10.30;84.60
24678;DHT22;12800;53.094;8.778;2022-11-15T03:21:28;10.30;84.60
24678;DHT22;12800;53.094;8.778;2022-11-15T03:23:57;10.30;84.70
24678;DHT22;12800;53.094;8.778;2022-11-15T03:26:25;10.30;84.70
24678;DHT22;12800;53.094;8.778;2022-11-15T03:29:13;10.40;84.80
24678;DHT22;12800;53.094;8.778;2022-11-15T03:31:43;10.40;84.80
24678;DHT22;12800;53.094;8.778;2022-11-15T03:40:03;10.40;85.00
24678;DHT22;12800;53.094;8.778;2022-11-15T03:45:31;10.40;85.10
24678;DHT22;12800;53.094;8.778;2022-11-15T03:48:14;10.50;85.20
24678;DHT22;12800;53.094;8.778;2022-11-15T03:50:42;10.50;85.10
24678;DHT22;12800;53.094;8.778;2022-11-15T03:53:09;10.50;85.20
24678;DHT22;12800;53.094;8.778;2022-11-15T03:55:35;10.50;85.10
24678;DHT22;12800;53.094;8.778;2022-11-15T03:58:01;10.50;85.10
24678;DHT22;12800;53.094;8.778;2022-11-15T04:00:27;10.50;85.20
24678;DHT22;12800;53.094;8.778;2022-11-15T04:02:53;10.50;85.20
24678;DHT22;12800;53.094;8.778;2022-11-15T04:05:18;10.50;85.30
24678;DHT22;12800;53.094;8.778;2022-11-15T04:07:44;10.50;85.30
24678;DHT22;12800;53.094;8.778;2022-11-15T04:10:11;10.50;85.30
24678;DHT22;12800;53.094;8.778;2022-11-15T04:12:39;10.50;85.30
24678;DHT22;12800;53.094;8.778;2022-11-15T04:15:11;10.50;85.30
24678;DHT22;12800;53.094;8.778;2022-11-15T04:22:58;10.60;85.60
24678;DHT22;12800;53.094;8.778;2022-11-15T04:25:42;10.60;85.50
24678;DHT22;12800;53.094;8.778;2022-11-15T04:28:09;10.60;85.50
24678;DHT22;12800;53.094;8.778;2022-11-15T04:30:35;10.70;85.60
24678;DHT22;12800;53.094;8.778;2022-11-15T04:33:00;10.70;85.50
24678;DHT22;12800;53.094;8.778;2022-11-15T04:35:26;10.70;85.50
24678;DHT22;12800;53.094;8.778;2022-11-15T04:37:52;10.70;85.50
24678;DHT22;12800;53.094;8.778;2022-11-15T04:40:18;10.70;85.50
24678;DHT22;12800;53.094;8.778;2022-11-15T04:42:44;10.80;85.50
24678;DHT22;12800;53.094;8.778;2022-11-15T04:45:10;10.80;85.50
24678;DHT22;12800;53.094;8.778;2022-11-15T04:47:35;10.80;85.50
24678;DHT22;12800;53.094;8.778;2022-11-15T04:50:01;10.80;85.60
24678;DHT22;12800;53.094;8.778;2022-11-15T04:52:27;10.80;85.60
24678;DHT22;12800;53.094;8.778;2022-11-15T04:54:52;10.80;85.70
24678;DHT22;12800;53.094;8.778;2022-11-15T04:57:18;10.80;85.60
24678;DHT22;12800;53.094;8.778;2022-11-15T04:59:44;10.90;85.60
24678;DHT22;12800;53.094;8.778;2022-11-15T05:02:09;10.90;85.60
24678;DHT22;12800;53.094;8.778;2022-11-15T05:04:35;10.90;85.60
24678;DHT22;12800;53.094;8.778;2022-11-15T05:07:00;10.90;85.50
24678;DHT22;12800;53.094;8.778;2022-11-15T05:09:27;10.90;85.60
24678;DHT22;12800;53.094;8.778;2022-11-15T05:11:53;10.90;85.60
24678;DHT22;12800;53.094;8.778;2022-11-15T05:14:18;10.90;85.60
24678;DHT22;12800;53.094;8.778;2022-11-15T05:16:44;11.00;85.70
24678;DHT22;12800;53.094;8.778;2022-11-15T05:19:09;11.00;85.70
24678;DHT22;12800;53.094;8.778;2022-11-15T05:21:35;11.00;86.60
24678;DHT22;12800;53.094;8.778;2022-11-15T05:24:01;11.00;85.80
24678;DHT22;12800;53.094;8.778;2022-11-15T05:26:27;11.00;85.80
24678;DHT22;12800;53.094;8.778;2022-11-15T05:28:57;11.00;85.80
24678;DHT22;12800;53.094;8.778;2022-11-15T05:31:24;11.00;85.80
24678;DHT22;12800;53.094;8.778;2022-11-15T05:33:51;11.10;85.80
24678;DHT22;12800;53.094;8.778;2022-11-15T05:36:35;11.10;86.60
24678;DHT22;12800;53.094;8.778;2022-11-15T05:39:04;11.10;85.80
24678;DHT22;12800;53.094;8.778;2022-11-15T05:44:24;11.10;86.00
24678;DHT22;12800;53.094;8.778;2022-11-15T05:46:53;11.10;86.00
24678;DHT22;12800;53.094;8.778;2022-11-15T05:49:24;11.10;86.00
24678;DHT22;12800;53.094;8.778;2022-11-15T05:51:51;11.20;86.10
24678;DHT22;12800;53.094;8.778;2022-11-15T05:54:19;11.20;86.10
24678;DHT22;12800;53.094;8.778;2022-11-15T05:56:46;11.20;86.10
24678;DHT22;12800;53.094;8.778;2022-11-15T05:59:12;11.20;86.20
24678;DHT22;12800;53.094;8.778;2022-11-15T06:01:39;11.20;86.30
24678;DHT22;12800;53.094;8.778;2022-11-15T06:04:05;11.20;86.40
24678;DHT22;12800;53.094;8.778;2022-11-15T06:06:30;11.20;86.40
24678;DHT22;12800;53.094;8.778;2022-11-15T06:08:56;11.30;86.50
24678;DHT22;12800;53.094;8.778;2022-11-15T06:11:21;11.30;86.60
24678;DHT22;12800;53.094;8.778;2022-11-15T06:13:47;11.30;86.70
24678;DHT22;12800;53.094;8.778;2022-11-15T06:16:13;11.30;86.60
24678;DHT22;12800;53.094;8.778;2022-11-15T06:18:39;11.40;86.70
24678;DHT22;12800;53.094;8.778;2022-11-15T06:21:05;11.40;86.70
24678;DHT22;12800;53.094;8.778;2022-11-15T06:23:34;11.40;86.70
24678;DHT22;12800;53.094;8.778;2022-11-15T06:26:01;11.40;86.70
24678;DHT22;12800;53.094;8.778;2022-11-15T06:28:31;11.40;86.70
24678;DHT22;12800;53.094;8.778;2022-11-15T06:31:08;11.50;86.70
24678;DHT22;12800;53.094;8.778;2022-11-15T06:33:34;11.50;86.70
24678;DHT22;12800;53.094;8.778;2022-11-15T06:36:05;11.50;86.80
24678;DHT22;12800;53.094;8.778;2022-11-15T06:38:32;11.50;86.80
24678;DHT22;12800;53.094;8.778;2022-11-15T06:41:08;11.50;86.80
24678;DHT22;12800;53.094;8.778;2022-11-15T06:43:35;11.50;86.80
24678;DHT22;12800;53.094;8.778;2022-11-15T06:46:02;11.60;86.90
24678;DHT22;12800;53.094;8.778;2022-11-15T06:48:28;11.60;86.90
24678;DHT22;12800;53.094;8.778;2022-11-15T06:50:57;11.60;87.80
24678;DHT22;12800;53.094;8.778;2022-11-15T06:53:23;11.60;87.00
24678;DHT22;12800;53.094;8.778;2022-11-15T06:55:49;11.60;87.10
24678;DHT22;12800;53.094;8.778;2022-11-15T06:58:14;11.60;87.20
24678;DHT22;12800;53.094;8.778;2022-11-15T07:00:40;11.60;87.20
24678;DHT22;12800;53.094;8.778;2022-11-15T07:03:06;11.60;87.10
24678;DHT22;12800;53.094;8.778;2022-11-15T07:05:32;11.60;87.90
24678;DHT22;12800;53.094;8.778;2022-11-15T07:07:59;11.70;87.30
24678;DHT22;12800;53.094;8.778;2022-11-15T07:10:25;11.70;87.30
24678;DHT22;12800;53.094;8.778;2022-11-15T07:12:51;11.70;87.20
24678;DHT22;12800;53.094;8.778;2022-11-15T07:15:18;11.70;87.20
24678;DHT22;12800;53.094;8.778;2022-11-15T07:17:44;11.70;87.20
24678;DHT22;12800;53.094;8.778;2022-11-15T07:20:10;11.70;87.20
24678;DHT22;12800;53.094;8.778;2022-11-15T07:22:36;11.70;87.30
24678;DHT22;12800;53.094;8.778;2022-11-15T07:25:02;11.70;87.30
24678;DHT22;12800;53.094;8.778;2022-11-15T07:27:28;11.70;87.40
24678;DHT22;12800;53.094;8.778;2022-11-15T07:29:54;11.80;87.50
24678;DHT22;12800;53.094;8.778;2022-11-15T07:32:19;11.80;87.50
24678;DHT22;12800;53.094;8.778;2022-11-15T07:34:45;11.80;87.70
24678;DHT22;12800;53.094;8.778;2022-11-15T07:37:12;11.80;87.70
24678;DHT22;12800;53.094;8.778;2022-11-15T07:39:38;11.90;87.80
24678;DHT22;12800;53.094;8.778;2022-11-15T07:42:03;11.90;87.90
24678;DHT22;12800;53.094;8.778;2022-11-15T07:44:48;12.00;87.90
24678;DHT22;12800;53.094;8.778;2022-11-15T07:47:14;12.10;88.00
24678;DHT22;12800;53.094;8.778;2022-11-15T07:49:39;12.10;87.90
24678;DHT22;12800;53.094;8.778;2022-11-15T07:52:05;12.20;87.80
24678;DHT22;12800;53.094;8.778;2022-11-15T07:54:31;12.20;87.70
24678;DHT22;12800;53.094;8.778;2022-11-15T07:56:56;12.30;87.70
24678;DHT22;12800;53.094;8.778;2022-11-15T07:59:22;12.30;87.60
24678;DHT22;12800;53.094;8.778;2022-11-15T08:01:48;12.40;87.50
24678;DHT22;12800;53.094;8.778;2022-11-15T08:04:13;12.40;87.40
24678;DHT22;12800;53.094;8.778;2022-11-15T08:06:39;12.50;87.40
24678;DHT22;12800;53.094;8.778;2022-11-15T08:09:05;12.50;87.30
24678;DHT22;12800;53.094;8.778;2022-11-15T08:11:31;12.50;87.10
24678;DHT22;12800;53.094;8.778;2022-11-15T08:13:56;12.60;87.20
24678;DHT22;12800;53.094;8.778;2022-11-15T08:16:22;12.60;87.20
24678;DHT22;12800;53.094;8.778;2022-11-15T08:18:47;12.60;87.10
24678;DHT22;12800;53.094;8.778;2022-11-15T08:21:18;12.60;87.00
24678;DHT22;12800;53.094;8.778;2022-11-15T08:23:44;12.60;87.00
24678;DHT22;12800;53.094;8.778;2022-11-15T08:26:10;12.70;87.00
24678;DHT22;12800;53.094;8.778;2022-11-15T08:28:36;12.70;86.90
24678;DHT22;12800;53.094;8.778;2022-11-15T08:31:03;12.70;86.90
24678;DHT22;12800;53.094;8.778;2022-11-15T08:33:29;12.70;86.70
24678;DHT22;12800;53.094;8.778;2022-11-15T08:35:58;12.80;86.70
24678;DHT22;12800;53.094;8.778;2022-11-15T08:38:24;12.80;86.70
24678;DHT22;12800;53.094;8.778;2022-11-15T08:40:52;12.90;86.60
24678;DHT22;12800;53.094;8.778;2022-11-15T08:43:18;12.90;86.60
24678;DHT22;12800;53.094;8.778;2022-11-15T08:45:44;12.90;86.50
24678;DHT22;12800;53.094;8.778;2022-11-15T08:48:10;12.90;86.50
24678;DHT22;12800;53.094;8.778;2022-11-15T08:50:36;12.90;86.50
24678;DHT22;12800;53.094;8.778;2022-11-15T08:53:07;12.90;86.40
24678;DHT22;12800;53.094;8.778;2022-11-15T08:55:37;13.00;86.50
24678;DHT22;12800;53.094;8.778;2022-11-15T08:58:03;13.00;86.40
24678;DHT22;12800;53.094;8.778;2022-11-15T09:00:29;13.00;86.40
24678;DHT22;12800;53.094;8.778;2022-11-15T09:02:55;13.10;87.20
24678;DHT22;12800;53.094;8.778;2022-11-15T09:05:21;13.10;86.30
24678;DHT22;12800;53.094;8.778;2022-11-15T09:07:46;13.20;86.30
24678;DHT22;12800;53.094;8.778;2022-11-15T09:10:12;13.20;86.10
24678;DHT22;12800;53.094;8.778;2022-11-15T09:12:38;13.20;86.00
24678;DHT22;12800;53.094;8.778;2022-11-15T09:15:05;13.30;86.00
24678;DHT22;12800;53.094;8.778;2022-11-15T09:17:31;13.30;85.90
24678;DHT22;12800;53.094;8.778;2022-11-15T09:19:57;13.30;85.90
24678;DHT22;12800;53.094;8.778;2022-11-15T09:22:22;13.30;85.80
24678;DHT22;12800;53.094;8.778;2022-11-15T09:24:48;13.30;85.80
24678;DHT22;12800;53.094;8.778;2022-11-15T09:27:14;13.30;85.70
24678;DHT22;12800;53.094;8.778;2022-11-15T09:29:39;13.30;85.60
24678;DHT22;12800;53.094;8.778;2022-11-15T09:32:05;13.30;85.50
24678;DHT22;12800;53.094;8.778;2022-11-15T09:34:31;13.30;85.50
24678;DHT22;12800;53.094;8.778;2022-11-15T09:36:56;13.30;85.50
24678;DHT22;12800;53.094;8.778;2022-11-15T09:39:22;13.30;85.60
24678;DHT22;12800;53.094;8.778;2022-11-15T09:50:17;13.40;85.80
24678;DHT22;12800;53.094;8.778;2022-11-15T09:52:45;13.50;85.90
24678;DHT22;12800;53.094;8.778;2022-11-15T09:55:12;13.50;85.80
24678;DHT22;12800;53.094;8.778;2022-11-15T09:57:55;13.70;85.80
24678;DHT22;12800;53.094;8.778;2022-11-15T10:00:41;13.70;85.40
24678;DHT22;12800;53.094;8.778;2022-11-15T10:03:11;13.80;85.20
24678;DHT22;12800;53.094;8.778;2022-11-15T10:05:41;13.80;85.00
24678;DHT22;12800;53.094;8.778;2022-11-15T10:10:48;13.80;84.90
24678;DHT22;12800;53.094;8.778;2022-11-15T10:13:22;13.90;84.90
24678;DHT22;12800;53.094;8.778;2022-11-15T10:15:48;13.90;84.80
24678;DHT22;12800;53.094;8.778;2022-11-15T10:20:51;14.00;84.80
24678;DHT22;12800;53.094;8.778;2022-11-15T10:23:20;14.10;84.60
24678;DHT22;12800;53.094;8.778;2022-11-15T10:25:47;14.10;84.50
24678;DHT22;12800;53.094;8.778;2022-11-15T10:28:21;14.20;84.40
24678;DHT22;12800;53.094;8.778;2022-11-15T10:30:51;14.20;84.20
24678;DHT22;12800;53.094;8.778;2022-11-15T10:33:23;14.20;83.90
24678;DHT22;12800;53.094;8.778;2022-11-15T10:46:34;14.30;83.80
24678;DHT22;12800;53.094;8.778;2022-11-15T10:49:33;14.30;83.60
24678;DHT22;12800;53.094;8.778;2022-11-15T10:52:02;14.40;83.60
24678;DHT22;12800;53.094;8.778;2022-11-15T10:54:34;14.40;83.60
24678;DHT22;12800;53.094;8.778;2022-11-15T10:57:07;14.40;83.50
24678;DHT22;12800;53.094;8.778;2022-11-15T10:59:37;14.50;83.50
24678;DHT22;12800;53.094;8.778;2022-11-15T11:04:50;14.70;83.20
24678;DHT22;12800;53.094;8.778;2022-11-15T11:07:24;14.70;83.00
24678;DHT22;12800;53.094;8.778;2022-11-15T11:09:58;14.70;82.80
24678;DHT22;12800;53.094;8.778;2022-11-15T11:12:29;14.70;82.60
24678;DHT22;12800;53.094;8.778;2022-11-15T11:14:58;14.80;82.70
24678;DHT22;12800;53.094;8.778;2022-11-15T11:18:04;14.80;82.70
24678;DHT22;12800;53.094;8.778;2022-11-15T11:20:38;14.90;82.60
24678;DHT22;12800;53.094;8.778;2022-11-15T11:23:35;14.90;82.50
24678;DHT22;12800;53.094;8.778;2022-11-15T11:37:28;15.00;82.10
24678;DHT22;12800;53.094;8.778;2022-11-15T11:40:02;15.10;82.00
24678;DHT22;12800;53.094;8.778;2022-11-15T11:45:23;15.10;81.80
24678;DHT22;12800;53.094;8.778;2022-11-15T11:53:52;15.10;81.40
24678;DHT22;12800;53.094;8.778;2022-11-15T11:58:50;15.10;81.20
24678;DHT22;12800;53.094;8.778;2022-11-15T12:01:42;15.10;81.20
24678;DHT22;12800;53.094;8.778;2022-11-15T12:04:16;15.20;81.10
24678;DHT22;12800;53.094;8.778;2022-11-15T12:07:04;15.10;80.80
24678;DHT22;12800;53.094;8.778;2022-11-15T12:09:43;15.20;80.80
24678;DHT22;12800;53.094;8.778;2022-11-15T12:17:13;15.20;80.60
24678;DHT22;12800;53.094;8.778;2022-11-15T12:19:41;15.20;80.40
24678;DHT22;12800;53.094;8.778;2022-11-15T12:24:54;15.30;80.60
24678;DHT22;12800;53.094;8.778;2022-11-15T12:27:47;15.40;81.10
24678;DHT22;12800;53.094;8.778;2022-11-15T12:30:20;15.50;80.90
24678;DHT22;12800;53.094;8.778;2022-11-15T12:32:55;15.50;81.10
24678;DHT22;12800;53.094;8.778;2022-11-15T12:35:34;15.60;80.40
24678;DHT22;12800;53.094;8.778;2022-11-15T12:38:00;15.60;80.30
24678;DHT22;12800;53.094;8.778;2022-11-15T12:40:31;15.70;80.00
24678;DHT22;12800;53.094;8.778;2022-11-15T12:45:40;15.80;79.60
24678;DHT22;12800;53.094;8.778;2022-11-15T12:50:56;15.80;78.60
24678;DHT22;12800;53.094;8.778;2022-11-15T12:58:57;15.80;78.00
24678;DHT22;12800;53.094;8.778;2022-11-15T13:06:50;15.80;77.50
24678;DHT22;12800;53.094;8.778;2022-11-15T13:12:06;15.90;77.20
24678;DHT22;12800;53.094;8.778;2022-11-15T13:14:52;15.90;76.90
24678;DHT22;12800;53.094;8.778;2022-11-15T13:22:41;15.90;75.60
24678;DHT22;12800;53.094;8.778;2022-11-15T13:27:52;15.90;74.90
24678;DHT22;12800;53.094;8.778;2022-11-15T13:30:25;15.90;74.60
24678;DHT22;12800;53.094;8.778;2022-11-15T13:32:51;15.80;74.10
24678;DHT22;12800;53.094;8.778;2022-11-15T13:35:23;15.80;74.00
24678;DHT22;12800;53.094;8.778;2022-11-15T13:37:50;15.80;74.10
24678;DHT22;12800;53.094;8.778;2022-11-15T13:40:28;15.70;74.00
24678;DHT22;12800;53.094;8.778;2022-11-15T13:42:57;15.70;73.70
24678;DHT22;12800;53.094;8.778;2022-11-15T13:45:23;15.60;73.60
24678;DHT22;12800;53.094;8.778;2022-11-15T13:47:56;15.50;73.30
24678;DHT22;12800;53.094;8.778;2022-11-15T13:50:33;15.50;73.40
24678;DHT22;12800;53.094;8.778;2022-11-15T13:53:04;15.50;73.30
24678;DHT22;12800;53.094;8.778;2022-11-15T13:55:31;15.40;73.30
24678;DHT22;12800;53.094;8.778;2022-11-15T13:58:03;15.40;74.20
24678;DHT22;12800;53.094;8.778;2022-11-15T14:00:39;15.30;73.40
24678;DHT22;12800;53.094;8.778;2022-11-15T14:03:26;15.30;73.10
24678;DHT22;12800;53.094;8.778;2022-11-15T14:06:08;15.30;73.00
24678;DHT22;12800;53.094;8.778;2022-11-15T14:08:39;15.30;72.90
24678;DHT22;12800;53.094;8.778;2022-11-15T14:11:17;15.30;73.10
24678;DHT22;12800;53.094;8.778;2022-11-15T14:16:40;15.30;72.90
24678;DHT22;12800;53.094;8.778;2022-11-15T14:19:09;15.30;72.70
24678;DHT22;12800;53.094;8.778;2022-11-15T14:21:35;15.30;72.60
24678;DHT22;12800;53.094;8.778;2022-11-15T14:24:20;15.20;72.50
24678;DHT22;12800;53.094;8.778;2022-11-15T14:26:46;15.20;72.50
24678;DHT22;12800;53.094;8.778;2022-11-15T14:29:26;15.20;73.20
24678;DHT22;12800;53.094;8.778;2022-11-15T14:31:53;15.10;72.20
24678;DHT22;12800;53.094;8.778;2022-11-15T14:34:18;15.10;72.20
24678;DHT22;12800;53.094;8.778;2022-11-15T14:36:46;15.10;72.30
24678;DHT22;12800;53.094;8.778;2022-11-15T14:39:12;15.10;72.30
24678;DHT22;12800;53.094;8.778;2022-11-15T14:41:37;15.00;72.20
24678;DHT22;12800;53.094;8.778;2022-11-15T14:44:04;15.00;72.30
24678;DHT22;12800;53.094;8.778;2022-11-15T14:46:31;14.90;72.30
24678;DHT22;12800;53.094;8.778;2022-11-15T14:48:56;14.90;72.60
24678;DHT22;12800;53.094;8.778;2022-11-15T14:51:22;14.90;72.70
24678;DHT22;12800;53.094;8.778;2022-11-15T14:53:48;14.80;73.00
24678;DHT22;12800;53.094;8.778;2022-11-15T14:56:14;14.70;73.20
24678;DHT22;12800;53.094;8.778;2022-11-15T14:58:40;14.60;73.40
24678;DHT22;12800;53.094;8.778;2022-11-15T15:01:13;14.50;73.80
24678;DHT22;12800;53.094;8.778;2022-11-15T15:03:39;14.40;74.10
24678;DHT22;12800;53.094;8.778;2022-11-15T15:06:05;14.40;75.20
24678;DHT22;12800;53.094;8.778;2022-11-15T15:08:30;14.20;74.60
24678;DHT22;12800;53.094;8.778;2022-11-15T15:10:56;14.10;74.90
24678;DHT22;12800;53.094;8.778;2022-11-15T15:13:23;14.10;75.10
24678;DHT22;12800;53.094;8.778;2022-11-15T15:15:51;14.00;75.30
24678;DHT22;12800;53.094;8.778;2022-11-15T15:18:17;13.90;75.50
24678;DHT22;12800;53.094;8.778;2022-11-15T15:20:45;13.80;75.80
24678;DHT22;12800;53.094;8.778;2022-11-15T15:23:16;13.80;76.10
24678;DHT22;12800;53.094;8.778;2022-11-15T15:25:42;13.70;76.20
24678;DHT22;12800;53.094;8.778;2022-11-15T15:28:09;13.60;76.30
24678;DHT22;12800;53.094;8.778;2022-11-15T15:30:34;13.60;76.60
24678;DHT22;12800;53.094;8.778;2022-11-15T15:33:00;13.50;76.80
24678;DHT22;12800;53.094;8.778;2022-11-15T15:35:29;13.50;77.10
24678;DHT22;12800;53.094;8.778;2022-11-15T15:37:56;13.50;77.30
24678;DHT22;12800;53.094;8.778;2022-11-15T15:40:23;13.50;77.50
24678;DHT22;12800;53.094;8.778;2022-11-15T15:42:49;13.50;77.70
24678;DHT22;12800;53.094;8.778;2022-11-15T15:45:16;13.50;78.00
24678;DHT22;12800;53.094;8.778;2022-11-15T15:47:43;13.50;78.20
24678;DHT22;12800;53.094;8.778;2022-11-15T15:50:25;13.50;78.40
24678;DHT22;12800;53.094;8.778;2022-11-15T15:52:52;13.50;78.50
24678;DHT22;12800;53.094;8.778;2022-11-15T15:55:18;13.50;78.80
24678;DHT22;12800;53.094;8.778;2022-11-15T15:57:46;13.50;78.90
24678;DHT22;12800;53.094;8.778;2022-11-15T16:00:12;13.50;79.00
24678;DHT22;12800;53.094;8.778;2022-11-15T16:02:39;13.50;79.10
24678;DHT22;12800;53.094;8.778;2022-11-15T16:05:05;13.50;79.30
24678;DHT22;12800;53.094;8.778;2022-11-15T16:07:31;13.40;79.30
24678;DHT22;12800;53.094;8.778;2022-11-15T16:09:57;13.40;79.40
24678;DHT22;12800;53.094;8.778;2022-11-15T16:12:32;13.40;79.50
24678;DHT22;12800;53.094;8.778;2022-11-15T16:14:58;13.40;79.60
24678;DHT22;12800;53.094;8.778;2022-11-15T16:17:31;13.40;79.80
24678;DHT22;12800;53.094;8.778;2022-11-15T16:19:57;13.30;79.90
24678;DHT22;12800;53.094;8.778;2022-11-15T16:22:22;13.30;79.90
24678;DHT22;12800;53.094;8.778;2022-11-15T16:24:48;13.30;80.00
24678;DHT22;12800;53.094;8.778;2022-11-15T16:27:18;13.30;80.10
24678;DHT22;12800;53.094;8.778;2022-11-15T16:29:44;13.30;80.20
24678;DHT22;12800;53.094;8.778;2022-11-15T16:32:10;13.30;80.30
24678;DHT22;12800;53.094;8.778;2022-11-15T16:34:35;13.30;80.40
24678;DHT22;12800;53.094;8.778;2022-11-15T16:37:01;13.30;80.40
24678;DHT22;12800;53.094;8.778;2022-11-15T16:39:27;13.40;80.50
24678;DHT22;12800;53.094;8.778;2022-11-15T16:41:58;13.40;80.50
24678;DHT22;12800;53.094;8.778;2022-11-15T16:44:24;13.40;80.50
24678;DHT22;12800;53.094;8.778;2022-11-15T16:46:50;13.40;80.50
24678;DHT22;12800;53.094;8.778;2022-11-15T16:49:20;13.50;80.60
24678;DHT22;12800;53.094;8.778;2022-11-15T16:51:47;13.40;80.50
24678;DHT22;12800;53.094;8.778;2022-11-15T16:54:13;13.40;80.50
24678;DHT22;12800;53.094;8.778;2022-11-15T16:56:40;13.50;80.60
24678;DHT22;12800;53.094;8.778;2022-11-15T16:59:06;13.40;80.50
24678;DHT22;12800;53.094;8.778;2022-11-15T17:01:36;13.50;80.50
24678;DHT22;12800;53.094;8.778;2022-11-15T17:04:18;13.50;80.50
24678;DHT22;12800;53.094;8.778;2022-11-15T17:06:47;13.50;80.40
24678;DHT22;12800;53.094;8.778;2022-11-15T17:09:18;13.50;80.40
24678;DHT22;12800;53.094;8.778;2022-11-15T17:11:44;13.50;80.50
24678;DHT22;12800;53.094;8.778;2022-11-15T17:14:10;13.50;80.50
24678;DHT22;12800;53.094;8.778;2022-11-15T17:16:36;13.50;80.50
24678;DHT22;12800;53.094;8.778;2022-11-15T17:19:17;13.50;80.50
24678;DHT22;12800;53.094;8.778;2022-11-15T17:21:43;13.50;80.50
24678;DHT22;12800;53.094;8.778;2022-11-15T17:24:09;13.50;80.70
24678;DHT22;12800;53.094;8.778;2022-11-15T17:26:35;13.50;80.80
24678;DHT22;12800;53.094;8.778;2022-11-15T17:29:02;13.60;81.00
24678;DHT22;12800;53.094;8.778;2022-11-15T17:31:29;13.60;80.80
24678;DHT22;12800;53.094;8.778;2022-11-15T17:33:55;13.60;80.80
24678;DHT22;12800;53.094;8.778;2022-11-15T17:36:21;13.60;80.70
24678;DHT22;12800;53.094;8.778;2022-11-15T17:38:47;13.60;80.60
24678;DHT22;12800;53.094;8.778;2022-11-15T17:41:16;13.60;80.50
24678;DHT22;12800;53.094;8.778;2022-11-15T17:43:42;13.60;80.50
24678;DHT22;12800;53.094;8.778;2022-11-15T17:46:11;13.60;80.50
24678;DHT22;12800;53.094;8.778;2022-11-15T17:48:37;13.60;80.50
24678;DHT22;12800;53.094;8.778;2022-11-15T17:51:04;13.60;80.50